sensor_id;sensor_type;location;lat;lon;timestamp;P1;durP1;ratioP1;P2;durP2;ratioP2
9256;SDS011;4665;51.368;6.782;2023-06-14T00:02:11;5.10;;;4.60;;
9256;SDS011;4665;51.368;6.782;2023-06-14T00:04:36;5.13;;;4.63;;
9256;SDS011;4665;51.368;6.782;2023-06-14T00:07:04;5.03;;;4.53;;
9256;SDS011;4665;51.368;6.782;2023-06-14T00:09:33;5.00;;;4.63;;
9256;SDS011;4665;51.368;6.782;2023-06-14T00:11:58;5.93;;;5.27;;
9256;SDS011;4665;51.368;6.782;2023-06-14T00:14:24;5.77;;;5.10;;
9256;SDS011;4665;51.368;6.782;2023-06-14T00:16:50;5.07;;;4.67;;
9256;SDS011;4665;51.368;6.782;2023-06-14T00:19:17;5.37;;;4.93;;
9256;SDS011;4665;51.368;6.782;2023-06-14T00:21:43;5.37;;;4.97;;
9256;SDS011;4665;51.368;6.782;2023-06-14T00:24:08;4.67;;;4.27;;
9256;SDS011;4665;51.368;6.782;2023-06-14T00:26:34;5.60;;;5.03;;
9256;SDS011;4665;51.368;6.782;2023-06-14T00:28:59;6.83;;;4.93;;
9256;SDS011;4665;51.368;6.782;2023-06-14T00:31:25;5.00;;;4.60;;
9256;SDS011;4665;51.368;6.782;2023-06-14T00:33:50;6.57;;;5.07;;
9256;SDS011;4665;51.368;6.782;2023-06-14T00:36:16;5.03;;;4.57;;
9256;SDS011;4665;51.368;6.782;2023-06-14T00:38:41;5.53;;;4.83;;
9256;SDS011;4665;51.368;6.782;2023-06-14T00:41:07;5.60;;;5.10;;
9256;SDS011;4665;51.368;6.782;2023-06-14T00:43:32;5.20;;;4.80;;
9256;SDS011;4665;51.368;6.782;2023-06-14T00:45:59;5.57;;;4.93;;
9256;SDS011;4665;51.368;6.782;2023-06-14T00:48:25;5.60;;;5.10;;
9256;SDS011;4665;51.368;6.782;2023-06-14T00:50:51;5.37;;;4.97;;
9256;SDS011;4665;51.368;6.782;2023-06-14T00:53:17;5.20;;;4.70;;
9256;SDS011;4665;51.368;6.782;2023-06-14T00:55:45;5.20;;;4.83;;
9256;SDS011;4665;51.368;6.782;2023-06-14T00:58:12;5.40;;;5.00;;
9256;SDS011;4665;51.368;6.782;2023-06-14T01:00:38;7.03;;;5.17;;
9256;SDS011;4665;51.368;6.782;2023-06-14T01:03:03;5.57;;;4.70;;
9256;SDS011;4665;51.368;6.782;2023-06-14T01:05:29;5.40;;;5.00;;
9256;SDS011;4665;51.368;6.782;2023-06-14T01:08:08;5.53;;;5.03;;
9256;SDS011;4665;51.368;6.782;2023-06-14T01:10:47;5.57;;;5.07;;
9256;SDS011;4665;51.368;6.782;2023-06-14T01:13:23;5.10;;;4.63;;
9256;SDS011;4665;51.368;6.782;2023-06-14T01:15:54;5.23;;;4.83;;
9256;SDS011;4665;51.368;6.782;2023-06-14T01:18:21;5.57;;;5.00;;
9256;SDS011;4665;51.368;6.782;2023-06-14T01:20:49;5.93;;;5.40;;
9256;SDS011;4665;51.368;6.782;2023-06-14T01:23:24;7.80;;;5.67;;
9256;SDS011;4665;51.368;6.782;2023-06-14T01:25:50;5.40;;;5.00;;
9256;SDS011;4665;51.368;6.782;2023-06-14T01:28:20;6.07;;;5.33;;
9256;SDS011;4665;51.368;6.782;2023-06-14T01:30:51;5.70;;;5.20;;
9256;SDS011;4665;51.368;6.782;2023-06-14T01:33:19;6.10;;;4.97;;
9256;SDS011;4665;51.368;6.782;2023-06-14T01:35:47;6.10;;;4.90;;
9256;SDS011;4665;51.368;6.782;2023-06-14T01:38:21;5.23;;;4.73;;
9256;SDS011;4665;51.368;6.782;2023-06-14T01:40:49;5.20;;;4.70;;
9256;SDS011;4665;51.368;6.782;2023-06-14T01:43:16;5.57;;;5.13;;
9256;SDS011;4665;51.368;6.782;2023-06-14T01:45:44;6.23;;;5.10;;
9256;SDS011;4665;51.368;6.782;2023-06-14T01:48:12;6.00;;;4.90;;
9256;SDS011;4665;51.368;6.782;2023-06-14T01:50:37;5.43;;;4.93;;
9256;SDS011;4665;51.368;6.782;2023-06-14T01:53:05;5.60;;;5.10;;
9256;SDS011;4665;51.368;6.782;2023-06-14T01:55:34;5.77;;;5.27;;
9256;SDS011;4665;51.368;6.782;2023-06-14T01:58:05;4.93;;;4.63;;
9256;SDS011;4665;51.368;6.782;2023-06-14T02:00:31;5.50;;;5.00;;
9256;SDS011;4665;51.368;6.782;2023-06-14T02:02:56;5.27;;;4.77;;
9256;SDS011;4665;51.368;6.782;2023-06-14T02:05:22;5.63;;;5.00;;
9256;SDS011;4665;51.368;6.782;2023-06-14T02:07:48;5.27;;;4.80;;
9256;SDS011;4665;51.368;6.782;2023-06-14T02:10:13;4.97;;;4.57;;
9256;SDS011;4665;51.368;6.782;2023-06-14T02:12:40;4.97;;;4.57;;
9256;SDS011;4665;51.368;6.782;2023-06-14T02:15:06;4.63;;;4.23;;
9256;SDS011;4665;51.368;6.782;2023-06-14T02:17:32;5.00;;;4.60;;
9256;SDS011;4665;51.368;6.782;2023-06-14T02:19:58;5.77;;;4.60;;
9256;SDS011;4665;51.368;6.782;2023-06-14T02:22:24;5.40;;;4.47;;
9256;SDS011;4665;51.368;6.782;2023-06-14T02:24:50;4.67;;;4.27;;
9256;SDS011;4665;51.368;6.782;2023-06-14T02:27:15;4.70;;;4.40;;
9256;SDS011;4665;51.368;6.782;2023-06-14T02:29:41;4.93;;;4.53;;
9256;SDS011;4665;51.368;6.782;2023-06-14T02:32:07;5.07;;;4.67;;
9256;SDS011;4665;51.368;6.782;2023-06-14T02:34:33;4.97;;;4.43;;
9256;SDS011;4665;51.368;6.782;2023-06-14T02:36:59;4.90;;;4.50;;
9256;SDS011;4665;51.368;6.782;2023-06-14T02:39:25;4.60;;;4.27;;
9256;SDS011;4665;51.368;6.782;2023-06-14T02:41:51;4.43;;;4.13;;
9256;SDS011;4665;51.368;6.782;2023-06-14T02:44:19;4.67;;;4.37;;
9256;SDS011;4665;51.368;6.782;2023-06-14T02:46:50;6.63;;;4.40;;
9256;SDS011;4665;51.368;6.782;2023-06-14T02:49:16;4.77;;;4.20;;
9256;SDS011;4665;51.368;6.782;2023-06-14T02:51:41;5.03;;;4.53;;
9256;SDS011;4665;51.368;6.782;2023-06-14T02:54:06;5.73;;;4.40;;
9256;SDS011;4665;51.368;6.782;2023-06-14T02:56:32;4.87;;;4.47;;
9256;SDS011;4665;51.368;6.782;2023-06-14T02:58:57;5.70;;;4.67;;
9256;SDS011;4665;51.368;6.782;2023-06-14T03:01:25;4.80;;;4.40;;
9256;SDS011;4665;51.368;6.782;2023-06-14T03:03:59;4.53;;;4.17;;
9256;SDS011;4665;51.368;6.782;2023-06-14T03:06:28;6.20;;;4.40;;
9256;SDS011;4665;51.368;6.782;2023-06-14T03:08:57;6.53;;;4.47;;
9256;SDS011;4665;51.368;6.782;2023-06-14T03:11:28;5.10;;;4.60;;
9256;SDS011;4665;51.368;6.782;2023-06-14T03:13:54;4.63;;;4.23;;
9256;SDS011;4665;51.368;6.782;2023-06-14T03:16:21;4.83;;;4.43;;
9256;SDS011;4665;51.368;6.782;2023-06-14T03:18:50;5.00;;;4.60;;
9256;SDS011;4665;51.368;6.782;2023-06-14T03:21:17;6.03;;;4.70;;
9256;SDS011;4665;51.368;6.782;2023-06-14T03:23:43;4.77;;;4.37;;
9256;SDS011;4665;51.368;6.782;2023-06-14T03:26:09;5.43;;;4.47;;
9256;SDS011;4665;51.368;6.782;2023-06-14T03:28:39;4.30;;;4.00;;
9256;SDS011;4665;51.368;6.782;2023-06-14T03:31:04;5.90;;;4.23;;
9256;SDS011;4665;51.368;6.782;2023-06-14T03:33:30;5.60;;;4.40;;
9256;SDS011;4665;51.368;6.782;2023-06-14T03:35:55;4.73;;;4.10;;
9256;SDS011;4665;51.368;6.782;2023-06-14T03:38:21;4.43;;;4.07;;
9256;SDS011;4665;51.368;6.782;2023-06-14T03:40:47;4.60;;;4.20;;
9256;SDS011;4665;51.368;6.782;2023-06-14T03:43:12;4.53;;;4.23;;
9256;SDS011;4665;51.368;6.782;2023-06-14T03:45:38;6.67;;;4.70;;
9256;SDS011;4665;51.368;6.782;2023-06-14T03:48:03;4.27;;;3.87;;
9256;SDS011;4665;51.368;6.782;2023-06-14T03:50:31;4.20;;;3.90;;
9256;SDS011;4665;51.368;6.782;2023-06-14T03:52:57;6.40;;;4.10;;
9256;SDS011;4665;51.368;6.782;2023-06-14T03:55:22;5.43;;;4.07;;
9256;SDS011;4665;51.368;6.782;2023-06-14T03:57:50;6.37;;;4.47;;
9256;SDS011;4665;51.368;6.782;2023-06-14T04:00:16;5.23;;;4.30;;
9256;SDS011;4665;51.368;6.782;2023-06-14T04:02:41;4.40;;;3.93;;
9256;SDS011;4665;51.368;6.782;2023-06-14T04:05:09;4.97;;;4.57;;
9256;SDS011;4665;51.368;6.782;2023-06-14T04:07:34;4.37;;;3.87;;
9256;SDS011;4665;51.368;6.782;2023-06-14T04:10:05;4.30;;;4.00;;
9256;SDS011;4665;51.368;6.782;2023-06-14T04:12:32;4.50;;;4.10;;
9256;SDS011;4665;51.368;6.782;2023-06-14T04:14:57;4.53;;;4.13;;
9256;SDS011;4665;51.368;6.782;2023-06-14T04:17:23;4.53;;;4.00;;
9256;SDS011;4665;51.368;6.782;2023-06-14T04:19:48;4.70;;;4.30;;
9256;SDS011;4665;51.368;6.782;2023-06-14T04:22:14;5.00;;;4.50;;
9256;SDS011;4665;51.368;6.782;2023-06-14T04:24:39;4.83;;;4.40;;
9256;SDS011;4665;51.368;6.782;2023-06-14T04:27:07;5.40;;;4.20;;
9256;SDS011;4665;51.368;6.782;2023-06-14T04:29:33;7.10;;;4.60;;
9256;SDS011;4665;51.368;6.782;2023-06-14T04:31:58;5.50;;;4.40;;
9256;SDS011;4665;51.368;6.782;2023-06-14T04:34:25;4.87;;;4.33;;
9256;SDS011;4665;51.368;6.782;2023-06-14T04:36:55;5.83;;;4.50;;
9256;SDS011;4665;51.368;6.782;2023-06-14T04:39:21;4.93;;;4.07;;
9256;SDS011;4665;51.368;6.782;2023-06-14T04:41:47;6.40;;;4.20;;
9256;SDS011;4665;51.368;6.782;2023-06-14T04:44:16;5.10;;;3.80;;
9256;SDS011;4665;51.368;6.782;2023-06-14T04:46:43;5.70;;;3.90;;
9256;SDS011;4665;51.368;6.782;2023-06-14T04:49:14;5.00;;;4.50;;
9256;SDS011;4665;51.368;6.782;2023-06-14T04:51:41;6.10;;;4.10;;
9256;SDS011;4665;51.368;6.782;2023-06-14T04:54:08;5.27;;;4.40;;
9256;SDS011;4665;51.368;6.782;2023-06-14T04:56:38;4.77;;;4.30;;
9256;SDS011;4665;51.368;6.782;2023-06-14T04:59:03;4.17;;;3.77;;
9256;SDS011;4665;51.368;6.782;2023-06-14T05:01:32;6.10;;;3.67;;
9256;SDS011;4665;51.368;6.782;2023-06-14T05:03:58;4.07;;;3.67;;
9256;SDS011;4665;51.368;6.782;2023-06-14T05:06:24;3.90;;;3.60;;
9256;SDS011;4665;51.368;6.782;2023-06-14T05:08:49;4.13;;;3.83;;
9256;SDS011;4665;51.368;6.782;2023-06-14T05:11:15;3.73;;;3.50;;
9256;SDS011;4665;51.368;6.782;2023-06-14T05:13:42;4.03;;;3.73;;
9256;SDS011;4665;51.368;6.782;2023-06-14T05:16:09;3.87;;;3.67;;
9256;SDS011;4665;51.368;6.782;2023-06-14T05:18:36;3.67;;;3.37;;
9256;SDS011;4665;51.368;6.782;2023-06-14T05:21:02;6.60;;;3.47;;
9256;SDS011;4665;51.368;6.782;2023-06-14T05:23:29;3.77;;;3.53;;
9256;SDS011;4665;51.368;6.782;2023-06-14T05:25:55;4.07;;;3.47;;
9256;SDS011;4665;51.368;6.782;2023-06-14T05:28:21;4.03;;;3.67;;
9256;SDS011;4665;51.368;6.782;2023-06-14T05:30:47;4.60;;;3.57;;
9256;SDS011;4665;51.368;6.782;2023-06-14T05:33:12;3.30;;;3.10;;
9256;SDS011;4665;51.368;6.782;2023-06-14T05:35:38;3.97;;;3.53;;
9256;SDS011;4665;51.368;6.782;2023-06-14T05:38:03;4.47;;;3.70;;
9256;SDS011;4665;51.368;6.782;2023-06-14T05:40:29;3.80;;;3.50;;
9256;SDS011;4665;51.368;6.782;2023-06-14T05:42:55;4.00;;;3.60;;
9256;SDS011;4665;51.368;6.782;2023-06-14T05:45:20;3.90;;;3.47;;
9256;SDS011;4665;51.368;6.782;2023-06-14T05:47:46;3.63;;;3.33;;
9256;SDS011;4665;51.368;6.782;2023-06-14T05:50:11;5.10;;;3.53;;
9256;SDS011;4665;51.368;6.782;2023-06-14T05:52:37;4.50;;;3.10;;
9256;SDS011;4665;51.368;6.782;2023-06-14T05:55:02;3.70;;;3.40;;
9256;SDS011;4665;51.368;6.782;2023-06-14T05:57:28;3.87;;;3.57;;
9256;SDS011;4665;51.368;6.782;2023-06-14T05:59:54;3.10;;;2.90;;
9256;SDS011;4665;51.368;6.782;2023-06-14T06:02:20;4.07;;;3.20;;
9256;SDS011;4665;51.368;6.782;2023-06-14T06:04:45;3.87;;;3.53;;
9256;SDS011;4665;51.368;6.782;2023-06-14T06:07:11;3.40;;;3.10;;
9256;SDS011;4665;51.368;6.782;2023-06-14T06:09:36;5.63;;;3.80;;
9256;SDS011;4665;51.368;6.782;2023-06-14T06:12:01;3.60;;;3.30;;
9256;SDS011;4665;51.368;6.782;2023-06-14T06:14:27;3.60;;;3.30;;
9256;SDS011;4665;51.368;6.782;2023-06-14T06:16:53;5.10;;;3.63;;
9256;SDS011;4665;51.368;6.782;2023-06-14T06:19:19;3.80;;;3.50;;
9256;SDS011;4665;51.368;6.782;2023-06-14T06:21:44;3.67;;;3.37;;
9256;SDS011;4665;51.368;6.782;2023-06-14T06:24:10;4.90;;;3.33;;
9256;SDS011;4665;51.368;6.782;2023-06-14T06:26:35;4.83;;;3.20;;
9256;SDS011;4665;51.368;6.782;2023-06-14T06:29:01;5.33;;;3.60;;
9256;SDS011;4665;51.368;6.782;2023-06-14T06:31:26;4.80;;;3.30;;
9256;SDS011;4665;51.368;6.782;2023-06-14T06:33:52;3.37;;;3.07;;
9256;SDS011;4665;51.368;6.782;2023-06-14T06:36:19;4.33;;;3.53;;
9256;SDS011;4665;51.368;6.782;2023-06-14T06:38:45;6.30;;;3.20;;
9256;SDS011;4665;51.368;6.782;2023-06-14T06:41:10;4.53;;;3.20;;
9256;SDS011;4665;51.368;6.782;2023-06-14T06:43:35;7.40;;;3.60;;
9256;SDS011;4665;51.368;6.782;2023-06-14T06:46:01;3.50;;;3.20;;
9256;SDS011;4665;51.368;6.782;2023-06-14T06:48:27;4.60;;;2.80;;
9256;SDS011;4665;51.368;6.782;2023-06-14T06:50:52;4.57;;;3.40;;
9256;SDS011;4665;51.368;6.782;2023-06-14T06:53:18;3.77;;;3.20;;
9256;SDS011;4665;51.368;6.782;2023-06-14T06:55:44;4.17;;;2.70;;
9256;SDS011;4665;51.368;6.782;2023-06-14T06:58:09;3.83;;;3.03;;
9256;SDS011;4665;51.368;6.782;2023-06-14T07:00:35;2.87;;;2.67;;
9256;SDS011;4665;51.368;6.782;2023-06-14T07:03:00;2.87;;;2.53;;
9256;SDS011;4665;51.368;6.782;2023-06-14T07:05:26;3.47;;;2.30;;
9256;SDS011;4665;51.368;6.782;2023-06-14T07:07:51;3.23;;;2.43;;
9256;SDS011;4665;51.368;6.782;2023-06-14T07:10:17;3.00;;;2.73;;
9256;SDS011;4665;51.368;6.782;2023-06-14T07:12:43;2.67;;;2.40;;
9256;SDS011;4665;51.368;6.782;2023-06-14T07:15:09;2.40;;;2.20;;
9256;SDS011;4665;51.368;6.782;2023-06-14T07:17:35;2.93;;;2.37;;
9256;SDS011;4665;51.368;6.782;2023-06-14T07:20:01;3.40;;;2.23;;
9256;SDS011;4665;51.368;6.782;2023-06-14T07:22:32;3.23;;;2.47;;
9256;SDS011;4665;51.368;6.782;2023-06-14T07:24:57;3.57;;;2.40;;
9256;SDS011;4665;51.368;6.782;2023-06-14T07:27:23;2.00;;;1.90;;
9256;SDS011;4665;51.368;6.782;2023-06-14T07:29:48;2.87;;;2.20;;
9256;SDS011;4665;51.368;6.782;2023-06-14T07:32:14;2.73;;;2.27;;
9256;SDS011;4665;51.368;6.782;2023-06-14T07:34:39;4.10;;;2.70;;
9256;SDS011;4665;51.368;6.782;2023-06-14T07:37:04;2.50;;;2.20;;
9256;SDS011;4665;51.368;6.782;2023-06-14T07:39:30;2.03;;;1.93;;
9256;SDS011;4665;51.368;6.782;2023-06-14T07:41:55;2.30;;;2.20;;
9256;SDS011;4665;51.368;6.782;2023-06-14T07:44:20;2.77;;;2.10;;
9256;SDS011;4665;51.368;6.782;2023-06-14T07:46:46;3.00;;;2.40;;
9256;SDS011;4665;51.368;6.782;2023-06-14T07:49:14;4.30;;;2.37;;
9256;SDS011;4665;51.368;6.782;2023-06-14T07:51:39;2.43;;;2.23;;
9256;SDS011;4665;51.368;6.782;2023-06-14T07:54:05;2.43;;;2.23;;
9256;SDS011;4665;51.368;6.782;2023-06-14T07:56:32;2.20;;;2.10;;
9256;SDS011;4665;51.368;6.782;2023-06-14T07:58:57;1.90;;;1.80;;
9256;SDS011;4665;51.368;6.782;2023-06-14T08:01:23;2.90;;;2.20;;
9256;SDS011;4665;51.368;6.782;2023-06-14T08:03:50;2.87;;;2.00;;
9256;SDS011;4665;51.368;6.782;2023-06-14T08:06:15;4.67;;;2.27;;
9256;SDS011;4665;51.368;6.782;2023-06-14T08:08:41;2.87;;;2.27;;
9256;SDS011;4665;51.368;6.782;2023-06-14T08:11:06;2.13;;;1.93;;
9256;SDS011;4665;51.368;6.782;2023-06-14T08:13:32;2.10;;;2.00;;
9256;SDS011;4665;51.368;6.782;2023-06-14T08:15:57;2.10;;;2.00;;
9256;SDS011;4665;51.368;6.782;2023-06-14T08:18:23;2.13;;;1.93;;
9256;SDS011;4665;51.368;6.782;2023-06-14T08:20:48;4.07;;;2.30;;
9256;SDS011;4665;51.368;6.782;2023-06-14T08:23:15;4.80;;;2.40;;
9256;SDS011;4665;51.368;6.782;2023-06-14T08:25:44;2.30;;;2.10;;
9256;SDS011;4665;51.368;6.782;2023-06-14T08:28:09;2.30;;;1.97;;
9256;SDS011;4665;51.368;6.782;2023-06-14T08:30:35;4.37;;;2.27;;
9256;SDS011;4665;51.368;6.782;2023-06-14T08:33:00;8.23;;;2.30;;
9256;SDS011;4665;51.368;6.782;2023-06-14T08:35:26;4.37;;;2.17;;
9256;SDS011;4665;51.368;6.782;2023-06-14T08:37:51;2.33;;;2.23;;
9256;SDS011;4665;51.368;6.782;2023-06-14T08:40:23;2.80;;;2.13;;
9256;SDS011;4665;51.368;6.782;2023-06-14T08:42:52;2.73;;;2.10;;
9256;SDS011;4665;51.368;6.782;2023-06-14T08:45:22;2.40;;;2.20;;
9256;SDS011;4665;51.368;6.782;2023-06-14T08:47:48;2.73;;;2.33;;
9256;SDS011;4665;51.368;6.782;2023-06-14T08:50:22;3.60;;;2.30;;
9256;SDS011;4665;51.368;6.782;2023-06-14T08:52:52;2.33;;;2.10;;
9256;SDS011;4665;51.368;6.782;2023-06-14T08:55:19;2.23;;;2.03;;
9256;SDS011;4665;51.368;6.782;2023-06-14T08:57:50;4.10;;;1.90;;
9256;SDS011;4665;51.368;6.782;2023-06-14T09:00:18;2.20;;;2.00;;
9256;SDS011;4665;51.368;6.782;2023-06-14T09:02:46;2.73;;;2.00;;
9256;SDS011;4665;51.368;6.782;2023-06-14T09:05:12;3.50;;;1.90;;
9256;SDS011;4665;51.368;6.782;2023-06-14T09:07:39;2.03;;;1.87;;
9256;SDS011;4665;51.368;6.782;2023-06-14T09:10:07;2.27;;;2.07;;
9256;SDS011;4665;51.368;6.782;2023-06-14T09:12:41;2.43;;;2.03;;
9256;SDS011;4665;51.368;6.782;2023-06-14T09:15:07;5.03;;;2.20;;
9256;SDS011;4665;51.368;6.782;2023-06-14T09:17:37;2.80;;;2.10;;
9256;SDS011;4665;51.368;6.782;2023-06-14T09:20:04;4.73;;;2.13;;
9256;SDS011;4665;51.368;6.782;2023-06-14T09:22:43;2.57;;;2.17;;
9256;SDS011;4665;51.368;6.782;2023-06-14T09:25:08;3.53;;;2.40;;
9256;SDS011;4665;51.368;6.782;2023-06-14T09:27:34;2.00;;;1.90;;
9256;SDS011;4665;51.368;6.782;2023-06-14T09:30:01;2.60;;;2.20;;
9256;SDS011;4665;51.368;6.782;2023-06-14T09:32:29;2.60;;;2.20;;
9256;SDS011;4665;51.368;6.782;2023-06-14T09:34:55;3.50;;;2.00;;
9256;SDS011;4665;51.368;6.782;2023-06-14T09:37:28;2.43;;;2.27;;
9256;SDS011;4665;51.368;6.782;2023-06-14T09:39:54;4.03;;;2.53;;
9256;SDS011;4665;51.368;6.782;2023-06-14T09:42:20;2.50;;;2.20;;
9256;SDS011;4665;51.368;6.782;2023-06-14T09:44:47;2.70;;;2.50;;
9256;SDS011;4665;51.368;6.782;2023-06-14T09:47:12;2.93;;;2.70;;
9256;SDS011;4665;51.368;6.782;2023-06-14T09:49:39;2.50;;;2.30;;
9256;SDS011;4665;51.368;6.782;2023-06-14T09:52:05;7.53;;;2.13;;
9256;SDS011;4665;51.368;6.782;2023-06-14T09:54:33;3.00;;;2.00;;
9256;SDS011;4665;51.368;6.782;2023-06-14T09:57:07;2.38;;;2.15;;
9256;SDS011;4665;51.368;6.782;2023-06-14T09:59:37;2.85;;;1.90;;
9256;SDS011;4665;51.368;6.782;2023-06-14T10:02:20;3.35;;;1.90;;
9256;SDS011;4665;51.368;6.782;2023-06-14T10:05:02;2.00;;;1.90;;
9256;SDS011;4665;51.368;6.782;2023-06-14T10:07:41;3.53;;;1.67;;
9256;SDS011;4665;51.368;6.782;2023-06-14T10:10:09;3.70;;;2.00;;
9256;SDS011;4665;51.368;6.782;2023-06-14T10:12:36;1.80;;;1.70;;
9256;SDS011;4665;51.368;6.782;2023-06-14T10:15:02;1.97;;;1.87;;
9256;SDS011;4665;51.368;6.782;2023-06-14T10:17:43;8.52;;;1.90;;
9256;SDS011;4665;51.368;6.782;2023-06-14T10:23:03;2.20;;;2.00;;
9256;SDS011;4665;51.368;6.782;2023-06-14T10:25:41;3.65;;;1.80;;
9256;SDS011;4665;51.368;6.782;2023-06-14T10:31:07;3.00;;;1.80;;
9256;SDS011;4665;51.368;6.782;2023-06-14T10:33:48;3.93;;;1.97;;
9256;SDS011;4665;51.368;6.782;2023-06-14T10:36:30;3.92;;;1.52;;
9256;SDS011;4665;51.368;6.782;2023-06-14T10:39:00;1.70;;;1.60;;
9256;SDS011;4665;51.368;6.782;2023-06-14T10:41:50;2.63;;;1.60;;
9256;SDS011;4665;51.368;6.782;2023-06-14T10:46:46;2.70;;;1.50;;
9256;SDS011;4665;51.368;6.782;2023-06-14T10:49:36;1.70;;;1.60;;
9256;SDS011;4665;51.368;6.782;2023-06-14T10:52:13;4.78;;;1.65;;
9256;SDS011;4665;51.368;6.782;2023-06-14T10:57:24;1.67;;;1.40;;
9256;SDS011;4665;51.368;6.782;2023-06-14T10:59:50;1.83;;;1.70;;
9256;SDS011;4665;51.368;6.782;2023-06-14T11:04:48;1.20;;;1.20;;
9256;SDS011;4665;51.368;6.782;2023-06-14T11:12:50;3.72;;;1.48;;
9256;SDS011;4665;51.368;6.782;2023-06-14T11:15:19;1.67;;;1.50;;
9256;SDS011;4665;51.368;6.782;2023-06-14T11:17:51;1.70;;;1.60;;
9256;SDS011;4665;51.368;6.782;2023-06-14T11:20:18;1.50;;;1.40;;
9256;SDS011;4665;51.368;6.782;2023-06-14T11:22:44;1.50;;;1.35;;
9256;SDS011;4665;51.368;6.782;2023-06-14T11:25:13;1.90;;;1.63;;
9256;SDS011;4665;51.368;6.782;2023-06-14T11:27:43;1.17;;;1.17;;
9256;SDS011;4665;51.368;6.782;2023-06-14T11:30:09;3.28;;;1.60;;
9256;SDS011;4665;51.368;6.782;2023-06-14T11:32:35;1.53;;;1.47;;
9256;SDS011;4665;51.368;6.782;2023-06-14T11:35:02;1.75;;;1.75;;
9256;SDS011;4665;51.368;6.782;2023-06-14T11:37:28;1.88;;;1.77;;
9256;SDS011;4665;51.368;6.782;2023-06-14T11:39:58;2.95;;;1.60;;
9256;SDS011;4665;51.368;6.782;2023-06-14T11:42:24;2.85;;;1.80;;
9256;SDS011;4665;51.368;6.782;2023-06-14T11:44:52;3.10;;;1.57;;
9256;SDS011;4665;51.368;6.782;2023-06-14T11:47:18;1.70;;;1.60;;
9256;SDS011;4665;51.368;6.782;2023-06-14T11:49:44;1.80;;;1.70;;
9256;SDS011;4665;51.368;6.782;2023-06-14T11:52:09;3.00;;;1.53;;
9256;SDS011;4665;51.368;6.782;2023-06-14T11:54:36;1.80;;;1.70;;
9256;SDS011;4665;51.368;6.782;2023-06-14T11:57:02;2.23;;;1.53;;
9256;SDS011;4665;51.368;6.782;2023-06-14T11:59:28;1.95;;;1.35;;
9256;SDS011;4665;51.368;6.782;2023-06-14T12:01:56;1.80;;;1.70;;
9256;SDS011;4665;51.368;6.782;2023-06-14T12:04:26;1.80;;;1.70;;
9256;SDS011;4665;51.368;6.782;2023-06-14T12:06:52;1.60;;;1.50;;
9256;SDS011;4665;51.368;6.782;2023-06-14T12:09:20;2.17;;;1.75;;
9256;SDS011;4665;51.368;6.782;2023-06-14T12:11:48;1.75;;;1.65;;
9256;SDS011;4665;51.368;6.782;2023-06-14T12:14:14;2.70;;;1.60;;
9256;SDS011;4665;51.368;6.782;2023-06-14T12:16:40;2.72;;;1.48;;
9256;SDS011;4665;51.368;6.782;2023-06-14T12:19:12;1.48;;;1.38;;
9256;SDS011;4665;51.368;6.782;2023-06-14T12:21:39;3.85;;;1.60;;
9256;SDS011;4665;51.368;6.782;2023-06-14T12:24:09;1.70;;;1.60;;
9256;SDS011;4665;51.368;6.782;2023-06-14T12:26:40;3.90;;;1.70;;
9256;SDS011;4665;51.368;6.782;2023-06-14T12:29:06;1.80;;;1.70;;
9256;SDS011;4665;51.368;6.782;2023-06-14T12:31:32;1.80;;;1.50;;
9256;SDS011;4665;51.368;6.782;2023-06-14T12:33:58;2.67;;;1.85;;
9256;SDS011;4665;51.368;6.782;2023-06-14T12:36:24;3.72;;;1.90;;
9256;SDS011;4665;51.368;6.782;2023-06-14T12:38:50;5.18;;;1.73;;
9256;SDS011;4665;51.368;6.782;2023-06-14T12:41:18;1.77;;;1.67;;
9256;SDS011;4665;51.368;6.782;2023-06-14T12:43:46;2.30;;;1.70;;
9256;SDS011;4665;51.368;6.782;2023-06-14T12:46:11;2.72;;;1.52;;
9256;SDS011;4665;51.368;6.782;2023-06-14T12:48:36;4.18;;;1.60;;
9256;SDS011;4665;51.368;6.782;2023-06-14T12:51:02;1.65;;;1.65;;
9256;SDS011;4665;51.368;6.782;2023-06-14T12:53:27;1.90;;;1.80;;
9256;SDS011;4665;51.368;6.782;2023-06-14T12:55:53;1.80;;;1.70;;
9256;SDS011;4665;51.368;6.782;2023-06-14T12:58:18;1.50;;;1.50;;
9256;SDS011;4665;51.368;6.782;2023-06-14T13:00:44;2.55;;;1.70;;
9256;SDS011;4665;51.368;6.782;2023-06-14T13:03:10;3.17;;;1.65;;
9256;SDS011;4665;51.368;6.782;2023-06-14T13:05:36;1.83;;;1.77;;
9256;SDS011;4665;51.368;6.782;2023-06-14T13:08:02;1.92;;;1.83;;
9256;SDS011;4665;51.368;6.782;2023-06-14T13:10:27;3.30;;;1.95;;
9256;SDS011;4665;51.368;6.782;2023-06-14T13:12:53;2.60;;;1.77;;
9256;SDS011;4665;51.368;6.782;2023-06-14T13:15:18;2.83;;;1.70;;
9256;SDS011;4665;51.368;6.782;2023-06-14T13:17:44;2.00;;;1.90;;
9256;SDS011;4665;51.368;6.782;2023-06-14T13:20:13;1.92;;;1.83;;
9256;SDS011;4665;51.368;6.782;2023-06-14T13:22:39;2.03;;;1.90;;
9256;SDS011;4665;51.368;6.782;2023-06-14T13:25:05;2.20;;;2.05;;
9256;SDS011;4665;51.368;6.782;2023-06-14T13:27:31;2.10;;;2.00;;
9256;SDS011;4665;51.368;6.782;2023-06-14T13:29:56;2.08;;;1.60;;
9256;SDS011;4665;51.368;6.782;2023-06-14T13:32:22;4.20;;;1.77;;
9256;SDS011;4665;51.368;6.782;2023-06-14T13:34:48;2.05;;;1.92;;
9256;SDS011;4665;51.368;6.782;2023-06-14T13:37:13;2.28;;;2.10;;
9256;SDS011;4665;51.368;6.782;2023-06-14T13:39:39;3.58;;;2.30;;
9256;SDS011;4665;51.368;6.782;2023-06-14T13:42:04;5.40;;;2.03;;
9256;SDS011;4665;51.368;6.782;2023-06-14T13:44:30;2.83;;;2.10;;
9256;SDS011;4665;51.368;6.782;2023-06-14T13:46:55;2.22;;;2.13;;
9256;SDS011;4665;51.368;6.782;2023-06-14T13:49:21;2.22;;;2.10;;
9256;SDS011;4665;51.368;6.782;2023-06-14T13:51:47;2.50;;;2.30;;
9256;SDS011;4665;51.368;6.782;2023-06-14T13:54:13;5.75;;;2.20;;
9256;SDS011;4665;51.368;6.782;2023-06-14T13:56:41;2.55;;;2.22;;
9256;SDS011;4665;51.368;6.782;2023-06-14T13:59:07;1.75;;;1.75;;
9256;SDS011;4665;51.368;6.782;2023-06-14T14:01:32;5.63;;;2.28;;
9256;SDS011;4665;51.368;6.782;2023-06-14T14:03:58;3.28;;;1.95;;
9256;SDS011;4665;51.368;6.782;2023-06-14T14:06:25;3.53;;;2.13;;
9256;SDS011;4665;51.368;6.782;2023-06-14T14:08:51;2.55;;;2.35;;
9256;SDS011;4665;51.368;6.782;2023-06-14T14:11:17;3.97;;;1.98;;
9256;SDS011;4665;51.368;6.782;2023-06-14T14:13:43;1.70;;;1.70;;
9256;SDS011;4665;51.368;6.782;2023-06-14T14:16:09;2.28;;;2.17;;
9256;SDS011;4665;51.368;6.782;2023-06-14T14:18:35;2.33;;;2.22;;
9256;SDS011;4665;51.368;6.782;2023-06-14T14:21:02;5.45;;;2.00;;
9256;SDS011;4665;51.368;6.782;2023-06-14T14:23:27;4.20;;;2.13;;
9256;SDS011;4665;51.368;6.782;2023-06-14T14:25:53;2.30;;;2.10;;
9256;SDS011;4665;51.368;6.782;2023-06-14T14:28:18;2.10;;;2.00;;
9256;SDS011;4665;51.368;6.782;2023-06-14T14:30:45;1.95;;;1.90;;
9256;SDS011;4665;51.368;6.782;2023-06-14T14:33:12;4.32;;;2.40;;
9256;SDS011;4665;51.368;6.782;2023-06-14T14:35:41;2.17;;;2.00;;
9256;SDS011;4665;51.368;6.782;2023-06-14T14:38:07;2.30;;;2.20;;
9256;SDS011;4665;51.368;6.782;2023-06-14T14:40:32;5.55;;;2.10;;
9256;SDS011;4665;51.368;6.782;2023-06-14T14:42:58;2.47;;;2.00;;
9256;SDS011;4665;51.368;6.782;2023-06-14T14:45:23;2.30;;;2.10;;
9256;SDS011;4665;51.368;6.782;2023-06-14T14:47:48;2.53;;;2.33;;
9256;SDS011;4665;51.368;6.782;2023-06-14T14:50:14;2.38;;;2.25;;
9256;SDS011;4665;51.368;6.782;2023-06-14T14:52:39;2.45;;;2.35;;
9256;SDS011;4665;51.368;6.782;2023-06-14T14:55:05;2.78;;;2.03;;
9256;SDS011;4665;51.368;6.782;2023-06-14T14:57:31;2.25;;;2.10;;
9256;SDS011;4665;51.368;6.782;2023-06-14T14:59:57;2.90;;;2.30;;
9256;SDS011;4665;51.368;6.782;2023-06-14T15:02:23;2.67;;;2.00;;
9256;SDS011;4665;51.368;6.782;2023-06-14T15:04:49;2.22;;;2.13;;
9256;SDS011;4665;51.368;6.782;2023-06-14T15:07:14;2.10;;;2.00;;
9256;SDS011;4665;51.368;6.782;2023-06-14T15:09:40;2.45;;;2.35;;
9256;SDS011;4665;51.368;6.782;2023-06-14T15:12:06;2.17;;;2.05;;
9256;SDS011;4665;51.368;6.782;2023-06-14T15:14:32;2.55;;;2.33;;
9256;SDS011;4665;51.368;6.782;2023-06-14T15:16:57;2.80;;;2.45;;
9256;SDS011;4665;51.368;6.782;2023-06-14T15:19:23;2.03;;;1.92;;
9256;SDS011;4665;51.368;6.782;2023-06-14T15:21:49;2.30;;;2.20;;
9256;SDS011;4665;51.368;6.782;2023-06-14T15:24:14;2.72;;;2.53;;
9256;SDS011;4665;51.368;6.782;2023-06-14T15:26:40;2.10;;;2.00;;
9256;SDS011;4665;51.368;6.782;2023-06-14T15:29:05;2.83;;;2.20;;
9256;SDS011;4665;51.368;6.782;2023-06-14T15:31:30;2.15;;;2.05;;
9256;SDS011;4665;51.368;6.782;2023-06-14T15:33:56;2.95;;;2.03;;